Time;durP1;ratioP1;P1;durP2;ratioP2;P2;SDS_P1;SDS_P2;PMS_P1;PMS_P2;Temp;Humidity;BMP_temperature;BMP_pressure;BME280_temperature;BME280_humidity;BME280_pressure;Samples;Min_cycle;Max_cycle;Signal;HPM_P1;HPM_P2
2024/01/09 00:06:38;;;;;;;5.07;4.03;;;;;;;-6.93;100.00;100641.16;31522353;28;20305;-83
2024/01/09 00:21:40;;;;;;;4.00;3.63;;;;;;;-7.04;100.00;100656.34;31505381;28;20610;-83
2024/01/09 00:36:43;;;;;;;3.87;3.57;;;;;;;-6.97;100.00;100677.88;31486737;28;20139;-84
2024/01/09 00:51:46;;;;;;;3.30;3.07;;;;;;;-7.19;100.00;100695.38;31506945;28;20056;-83
2024/01/09 01:06:48;;;;;;;4.40;4.03;;;;;;;-7.10;100.00;100698.94;31505438;28;20052;-84
2024/01/09 01:21:50;;;;;;;3.27;3.07;;;;;;;-7.16;100.00;100721.97;31515816;28;20044;-84
2024/01/09 01:36:52;;;;;;;4.10;3.77;;;;;;;-6.95;100.00;100738.31;31529922;28;20416;-82
2024/01/09 01:51:54;;;;;;;3.13;2.77;;;;;;;-7.29;100.00;100764.88;31529095;28;20061;-86
2024/01/09 02:06:57;;;;;;;4.80;4.40;;;;;;;-7.17;100.00;100764.47;31513771;28;20045;-84
2024/01/09 02:21:59;;;;;;;6.90;4.40;;;;;;;-6.97;100.00;100782.69;31526110;28;20059;-83
2024/01/09 02:37:01;;;;;;;7.20;4.77;;;;;;;-6.99;100.00;100805.94;31520274;28;20044;-85
2024/01/09 02:52:04;;;;;;;6.13;4.90;;;;;;;-6.96;100.00;100823.84;31503543;28;20053;-84
2024/01/09 03:07:06;;;;;;;15.73;5.83;;;;;;;-6.86;100.00;100846.69;31504505;28;20083;-83
2024/01/09 03:22:08;;;;;;;15.73;5.03;;;;;;;-6.79;100.00;100865.59;31469297;28;20400;-83
2024/01/09 03:37:11;;;;;;;6.17;5.07;;;;;;;-6.61;100.00;100881.47;31544987;28;20052;-82
2024/01/09 03:52:13;;;;;;;5.33;4.83;;;;;;;-6.47;100.00;100901.91;31519680;28;20500;-81
2024/01/09 04:07:15;;;;;;;5.30;4.73;;;;;;;-6.66;100.00;100931.72;31488026;28;20381;-84
2024/01/09 04:22:17;;;;;;;5.20;4.57;;;;;;;-6.92;100.00;100954.19;31499987;28;20060;-84
2024/01/09 04:37:19;;;;;;;9.73;5.47;;;;;;;-6.98;100.00;100982.50;31512443;28;20278;-83
2024/01/09 04:52:21;;;;;;;7.67;4.90;;;;;;;-6.79;100.00;101016.88;31516139;28;20059;-84
2024/01/09 05:07:23;;;;;;;10.97;4.90;;;;;;;-6.93;100.00;101043.16;31514299;28;20048;-83
2024/01/09 05:22:25;;;;;;;7.47;5.13;;;;;;;-6.67;100.00;101050.84;31523066;28;20447;-82
2024/01/09 05:37:28;;;;;;;10.27;6.07;;;;;;;-6.90;100.00;101065.59;31511867;28;20492;-83
2024/01/09 05:52:30;;;;;;;6.80;6.10;;;;;;;-6.82;100.00;101104.56;31505519;28;20087;-82
2024/01/09 06:07:32;;;;;;;10.23;8.73;;;;;;;-6.37;100.00;101128.97;31495124;28;20053;-81
2024/01/09 06:22:37;;;;;;;17.00;6.90;;;;;;;-3.24;69.79;101138.13;31489015;28;20052;-81
2024/01/09 06:37:42;;;;;;;7.63;4.97;;;;;;;-1.35;55.39;101173.88;31498449;28;20045;-80
2024/01/09 06:52:44;;;;;;;3.77;3.07;;;;;;;-0.29;49.63;101199.06;31488308;28;20052;-82
2024/01/09 07:07:49;;;;;;;10.50;4.53;;;;;;;0.53;45.54;101229.81;31493038;28;20062;-78
2024/01/09 07:22:52;;;;;;;8.70;5.70;;;;;;;1.06;44.56;101231.06;31495215;28;20395;-86
2024/01/09 07:38:10;;;;;;;11.47;6.03;;;;;;;1.60;44.87;101232.63;31518490;28;20061;-82
2024/01/09 07:53:12;;;;;;;9.30;6.00;;;;;;;2.14;44.46;101243.22;31526691;28;20036;-86
2024/01/09 08:08:14;;;;;;;11.17;5.40;;;;;;;2.74;42.06;101281.88;31533059;28;20403;-83
2024/01/09 08:23:16;;;;;;;19.07;7.37;;;;;;;3.15;42.32;101290.75;31495887;28;20053;-85
2024/01/09 08:38:22;;;;;;;11.27;6.10;;;;;;;3.44;42.65;101290.47;31519154;28;20547;-83
2024/01/09 08:53:28;;;;;;;12.47;6.53;;;;;;;3.06;43.53;101272.91;31510078;28;20489;-83
2024/01/09 09:23:50;;;;;;;8.37;4.53;;;;;;;3.15;44.10;101306.84;19406308;22;20056;-84
2024/01/09 09:38:53;;;;;;;6.37;4.63;;;;;;;3.66;43.92;101322.16;31398667;28;20072;-86
2024/01/09 09:53:59;;;;;;;7.47;5.00;;;;;;;3.83;43.21;101296.13;31372954;28;20048;-79
2024/01/09 10:09:56;;;;;;;;;;;;;;;;;;;;;
2024/01/09 10:40:26;;;;;;;9.47;4.13;;;;;;;4.59;41.03;101286.91;31372702;28;19971;-83
2024/01/09 10:55:31;;;;;;;5.33;3.33;;;;;;;5.04;41.30;101289.84;31423611;28;20064;-83
2024/01/09 11:10:40;;;;;;;5.83;3.70;;;;;;;5.10;40.97;101280.38;31354582;28;20053;-80
2024/01/09 11:25:50;;;;;;;6.17;4.40;;;;;;;5.16;40.78;101293.56;31309595;28;20061;-82
2024/01/09 11:40:52;;;;;;;9.33;5.67;;;;;;;4.97;40.90;101299.66;31237880;28;20110;-82
2024/01/09 11:55:54;;;;;;;25.00;8.30;;;;;;;4.79;42.51;101296.59;31307385;28;20049;-84
2024/01/09 12:10:57;;;;;;;18.67;9.00;;;;;;;3.76;45.84;101335.09;31291490;28;20071;-83
2024/01/09 12:25:59;;;;;;;4.73;3.53;;;;;;;-0.19;62.51;101350.84;31357364;28;20488;-85
2024/01/09 12:41:04;;;;;;;6.03;3.90;;;;;;;-0.76;80.46;101345.66;31367044;28;20056;-81
2024/01/09 12:56:26;;;;;;;6.87;3.53;;;;;;;-1.51;79.89;101379.41;31380651;28;20052;-82
2024/01/09 13:11:35;;;;;;;4.93;3.17;;;;;;;-1.67;95.30;101409.41;31111887;28;20162;-80
2024/01/09 13:26:41;;;;;;;6.53;3.93;;;;;;;-1.94;96.08;101419.06;31106665;28;20141;-80
2024/01/09 13:41:45;;;;;;;6.90;4.33;;;;;;;-2.37;100.00;101440.00;31214862;28;20572;-87
2024/01/09 13:56:57;;;;;;;12.87;5.07;;;;;;;-2.70;100.00;101444.66;31257731;28;20058;-79
2024/01/09 14:11:59;;;;;;;12.60;7.30;;;;;;;-3.07;100.00;101453.56;31205336;28;20049;-87
2024/01/09 14:27:01;;;;;;;4.93;4.47;;;;;;;-3.79;100.00;101469.94;31312928;28;20512;-80
2024/01/09 14:42:05;;;;;;;4.57;4.03;;;;;;;-4.32;100.00;101492.41;31379610;28;20060;-81
2024/01/09 14:57:12;;;;;;;6.90;4.00;;;;;;;-4.47;100.00;101496.03;31361820;28;20057;-84
2024/01/09 15:12:15;;;;;;;4.63;4.23;;;;;;;-4.41;100.00;101504.72;31376416;28;20053;-82
2024/01/09 15:27:26;;;;;;;10.90;5.47;;;;;;;-4.30;100.00;101504.31;31366807;28;20048;-85
2024/01/09 15:42:29;;;;;;;6.93;4.50;;;;;;;-4.24;100.00;101520.94;31380992;28;20056;-84
2024/01/09 15:57:31;;;;;;;4.90;4.33;;;;;;;-4.37;100.00;101541.00;31326639;28;20079;-86
2024/01/09 16:12:33;;;;;;;5.73;3.93;;;;;;;-4.21;100.00;101557.50;31343581;28;20064;-87
2024/01/09 16:27:36;;;;;;;3.90;3.53;;;;;;;-4.41;100.00;101560.38;31378326;28;20049;-88
2024/01/09 16:42:39;;;;;;;5.67;3.70;;;;;;;-4.60;100.00;101566.41;31396716;28;20076;-89
2024/01/09 17:13:03;;;;;;;6.33;5.30;;;;;;;-4.44;100.00;101560.94;10667100;22;20044;-89
2024/01/09 17:28:06;;;;;;;7.13;5.13;;;;;;;-4.28;100.00;101557.06;31432974;28;20049;-85
2024/01/09 17:43:09;;;;;;;13.93;5.57;;;;;;;-4.36;100.00;101541.78;31370928;28;20065;-82
2024/01/09 17:58:12;;;;;;;5.47;3.93;;;;;;;-3.79;100.00;101549.53;31324646;28;20127;-86
2024/01/09 18:13:20;;;;;;;3.93;3.63;;;;;;;-4.54;100.00;101544.09;30995033;28;20466;-80
2024/01/09 18:28:24;;;;;;;3.87;3.40;;;;;;;-4.25;100.00;101545.91;30981586;28;20125;-79
2024/01/09 18:43:30;;;;;;;5.40;4.40;;;;;;;-4.37;100.00;101532.25;30996790;28;20066;-78
2024/01/09 18:58:32;;;;;;;7.27;4.50;;;;;;;-4.79;100.00;101523.16;30973005;28;20059;-79
2024/01/09 19:13:36;;;;;;;9.57;4.30;;;;;;;-4.93;100.00;101538.13;30980064;28;20050;-81
2024/01/09 19:28:38;;;;;;;16.27;8.93;;;;;;;-5.24;100.00;101527.03;31000253;28;20081;-79
2024/01/09 19:43:43;;;;;;;15.27;7.80;;;;;;;-5.27;100.00;101554.84;30991963;28;20057;-89
2024/01/09 19:58:47;;;;;;;4.77;3.83;;;;;;;-5.66;100.00;101548.75;30982616;28;20078;-85
2024/01/09 20:13:51;;;;;;;11.27;5.50;;;;;;;-5.74;100.00;101544.06;31039219;28;20054;-80
2024/01/09 20:28:56;;;;;;;7.13;4.53;;;;;;;-5.90;100.00;101546.78;31026831;28;20077;-81
2024/01/09 20:43:58;;;;;;;4.87;4.37;;;;;;;-5.78;100.00;101553.59;31020837;28;20058;-82
2024/01/09 20:59:00;;;;;;;3.97;3.77;;;;;;;-5.86;100.00;101531.16;31008860;28;20066;-81
2024/01/09 21:14:02;;;;;;;4.53;4.13;;;;;;;-5.80;100.00;101531.91;31010588;28;20058;-79
2024/01/09 21:29:15;;;;;;;;;;;;;;;;;;;;;
2024/01/09 21:44:18;;;;;;;19.93;10.67;;;;;;;-5.97;100.00;101493.44;31018839;28;20063;-84
2024/01/09 21:59:23;;;;;;;10.10;8.50;;;;;;;-5.93;100.00;101473.31;30983589;28;20073;-80
2024/01/09 22:14:25;;;;;;;3.73;3.43;;;;;;;-6.04;100.00;101448.00;30976908;28;20058;-80
2024/01/09 22:29:27;;;;;;;4.70;3.70;;;;;;;-5.88;100.00;101420.34;30984288;28;20303;-82
2024/01/09 22:44:30;;;;;;;3.67;2.97;;;;;;;-5.71;100.00;101411.25;30992266;28;20491;-81
2024/01/09 22:59:31;;;;;;;4.87;4.47;;;;;;;-5.67;100.00;101388.47;30970873;28;20124;-82
2024/01/09 23:14:34;;;;;;;4.60;3.80;;;;;;;-5.72;100.00;101370.78;31005550;28;20062;-80
2024/01/09 23:29:36;;;;;;;4.47;3.47;;;;;;;-5.73;100.00;101365.75;30998402;28;20054;-80
2024/01/09 23:44:38;;;;;;;7.60;4.77;;;;;;;-6.23;100.00;101357.97;30982718;28;20496;-80
2024/01/09 23:59:40;;;;;;;5.23;4.17;;;;;;;-6.44;100.00;101361.84;30964834;28;20074;-79
